Alburgh, New York
Current Conditions -  °F | °C
As of 12:28 PM on Thursday 30 Oct 2014 (Local Time) from KMSS Reporting Station
Overcast Overcast  
Wind Chill: 41°   Ceiling: 3900
Heat Index: 45°   Visibility: 10mi
Dew Point: 33°   Wind: 8mph
Humidity: 63%   Direction: 260°W
Pressure: 30.02"   Gusts: NA
Location:  44.8293°N, 74.5271°W
Report Text: KMSS 301628Z AUTO 26007KT 10SM SCT026 OVC039 07/01 A3002 RMK AO2 T00720006
Loading
Personal Weather Stations






























Interactive Weather Map
Tropical Storm Tracking
New forecast layout! Learn more

10-Day Weather Forecast

Advertisements
Track Severe Weather on mobile